sensor_id;sensor_type;location;lat;lon;timestamp;P1;durP1;ratioP1;P2;durP2;ratioP2
33285;SDS011;19656;50.096;20.014;2022-08-25T00:02:11;11.80;;;4.30;;
33285;SDS011;19656;50.096;20.014;2022-08-25T00:07:15;8.60;;;3.80;;
33285;SDS011;19656;50.096;20.014;2022-08-25T00:12:20;15.50;;;4.20;;
33285;SDS011;19656;50.096;20.014;2022-08-25T00:17:23;14.10;;;4.30;;
33285;SDS011;19656;50.096;20.014;2022-08-25T00:22:26;9.80;;;4.30;;
33285;SDS011;19656;50.096;20.014;2022-08-25T00:27:29;14.40;;;4.30;;
33285;SDS011;19656;50.096;20.014;2022-08-25T00:32:32;12.80;;;3.90;;
33285;SDS011;19656;50.096;20.014;2022-08-25T00:37:35;13.50;;;3.50;;
33285;SDS011;19656;50.096;20.014;2022-08-25T00:42:39;10.00;;;3.80;;
33285;SDS011;19656;50.096;20.014;2022-08-25T00:47:42;13.10;;;4.00;;
33285;SDS011;19656;50.096;20.014;2022-08-25T00:52:46;14.40;;;4.10;;
33285;SDS011;19656;50.096;20.014;2022-08-25T01:03:28;14.00;;;4.30;;
33285;SDS011;19656;50.096;20.014;2022-08-25T01:08:37;11.70;;;4.20;;
33285;SDS011;19656;50.096;20.014;2022-08-25T01:13:44;13.60;;;4.20;;
33285;SDS011;19656;50.096;20.014;2022-08-25T01:18:53;12.80;;;4.20;;
33285;SDS011;19656;50.096;20.014;2022-08-25T01:23:59;15.50;;;4.50;;
33285;SDS011;19656;50.096;20.014;2022-08-25T01:29:04;11.00;;;4.20;;
33285;SDS011;19656;50.096;20.014;2022-08-25T01:34:27;14.00;;;4.20;;
33285;SDS011;19656;50.096;20.014;2022-08-25T01:39:33;9.10;;;4.20;;
33285;SDS011;19656;50.096;20.014;2022-08-25T01:44:42;11.00;;;4.10;;
33285;SDS011;19656;50.096;20.014;2022-08-25T01:49:46;11.30;;;4.30;;
33285;SDS011;19656;50.096;20.014;2022-08-25T01:54:49;10.50;;;4.00;;
33285;SDS011;19656;50.096;20.014;2022-08-25T01:59:52;12.30;;;4.10;;
33285;SDS011;19656;50.096;20.014;2022-08-25T02:04:55;15.30;;;4.20;;
33285;SDS011;19656;50.096;20.014;2022-08-25T02:09:58;15.90;;;3.90;;
33285;SDS011;19656;50.096;20.014;2022-08-25T02:15:05;15.90;;;4.20;;
33285;SDS011;19656;50.096;20.014;2022-08-25T02:20:09;16.30;;;4.10;;
33285;SDS011;19656;50.096;20.014;2022-08-25T02:25:12;17.30;;;3.90;;
33285;SDS011;19656;50.096;20.014;2022-08-25T02:30:15;19.20;;;4.20;;
33285;SDS011;19656;50.096;20.014;2022-08-25T02:35:19;19.70;;;4.30;;
33285;SDS011;19656;50.096;20.014;2022-08-25T02:40:22;19.50;;;4.40;;
33285;SDS011;19656;50.096;20.014;2022-08-25T02:45:25;16.50;;;3.90;;
33285;SDS011;19656;50.096;20.014;2022-08-25T02:50:28;19.10;;;4.80;;
33285;SDS011;19656;50.096;20.014;2022-08-25T02:55:31;13.50;;;4.60;;
33285;SDS011;19656;50.096;20.014;2022-08-25T03:00:36;20.70;;;4.80;;
33285;SDS011;19656;50.096;20.014;2022-08-25T03:05:39;15.30;;;4.20;;
33285;SDS011;19656;50.096;20.014;2022-08-25T03:10:43;14.90;;;4.20;;
33285;SDS011;19656;50.096;20.014;2022-08-25T03:15:48;16.10;;;4.40;;
33285;SDS011;19656;50.096;20.014;2022-08-25T03:20:53;16.50;;;4.00;;
33285;SDS011;19656;50.096;20.014;2022-08-25T03:25:56;18.30;;;4.50;;
33285;SDS011;19656;50.096;20.014;2022-08-25T03:31:17;25.70;;;5.60;;
33285;SDS011;19656;50.096;20.014;2022-08-25T03:36:21;18.40;;;4.30;;
33285;SDS011;19656;50.096;20.014;2022-08-25T03:41:25;23.40;;;4.70;;
33285;SDS011;19656;50.096;20.014;2022-08-25T03:46:32;20.80;;;4.80;;
33285;SDS011;19656;50.096;20.014;2022-08-25T03:51:44;16.70;;;5.00;;
33285;SDS011;19656;50.096;20.014;2022-08-25T03:56:49;22.10;;;5.00;;
33285;SDS011;19656;50.096;20.014;2022-08-25T04:01:53;17.50;;;4.50;;
33285;SDS011;19656;50.096;20.014;2022-08-25T04:06:57;20.10;;;4.50;;
33285;SDS011;19656;50.096;20.014;2022-08-25T04:12:01;16.30;;;4.90;;
33285;SDS011;19656;50.096;20.014;2022-08-25T04:17:04;16.10;;;4.50;;
33285;SDS011;19656;50.096;20.014;2022-08-25T04:22:07;17.10;;;5.10;;
33285;SDS011;19656;50.096;20.014;2022-08-25T04:27:11;18.10;;;5.10;;
33285;SDS011;19656;50.096;20.014;2022-08-25T04:32:14;19.80;;;5.40;;
33285;SDS011;19656;50.096;20.014;2022-08-25T04:37:16;17.60;;;4.70;;
33285;SDS011;19656;50.096;20.014;2022-08-25T04:42:19;16.10;;;4.80;;
33285;SDS011;19656;50.096;20.014;2022-08-25T04:47:23;17.50;;;5.40;;
33285;SDS011;19656;50.096;20.014;2022-08-25T04:52:29;17.80;;;5.00;;
33285;SDS011;19656;50.096;20.014;2022-08-25T04:57:32;24.20;;;5.90;;
33285;SDS011;19656;50.096;20.014;2022-08-25T05:02:35;17.60;;;5.00;;
33285;SDS011;19656;50.096;20.014;2022-08-25T05:07:38;12.90;;;4.20;;
33285;SDS011;19656;50.096;20.014;2022-08-25T05:12:41;17.70;;;4.30;;
33285;SDS011;19656;50.096;20.014;2022-08-25T05:17:45;17.60;;;4.30;;
33285;SDS011;19656;50.096;20.014;2022-08-25T05:22:48;26.40;;;4.70;;
33285;SDS011;19656;50.096;20.014;2022-08-25T05:27:52;17.00;;;4.80;;
33285;SDS011;19656;50.096;20.014;2022-08-25T05:32:55;20.90;;;4.60;;
33285;SDS011;19656;50.096;20.014;2022-08-25T05:37:58;18.60;;;5.30;;
33285;SDS011;19656;50.096;20.014;2022-08-25T05:43:02;18.50;;;4.10;;
33285;SDS011;19656;50.096;20.014;2022-08-25T05:48:05;17.90;;;4.30;;
33285;SDS011;19656;50.096;20.014;2022-08-25T05:53:08;17.60;;;4.70;;
33285;SDS011;19656;50.096;20.014;2022-08-25T05:58:11;22.70;;;4.50;;
33285;SDS011;19656;50.096;20.014;2022-08-25T06:03:16;24.20;;;4.80;;
33285;SDS011;19656;50.096;20.014;2022-08-25T06:08:20;32.60;;;4.40;;
33285;SDS011;19656;50.096;20.014;2022-08-25T06:13:23;22.30;;;5.20;;
33285;SDS011;19656;50.096;20.014;2022-08-25T06:18:30;18.30;;;4.60;;
33285;SDS011;19656;50.096;20.014;2022-08-25T06:23:33;19.80;;;4.40;;
33285;SDS011;19656;50.096;20.014;2022-08-25T06:28:36;25.60;;;5.60;;
33285;SDS011;19656;50.096;20.014;2022-08-25T06:33:39;37.30;;;6.60;;
33285;SDS011;19656;50.096;20.014;2022-08-25T06:38:42;34.90;;;7.10;;
33285;SDS011;19656;50.096;20.014;2022-08-25T06:43:45;31.10;;;6.00;;
33285;SDS011;19656;50.096;20.014;2022-08-25T06:48:54;31.20;;;6.00;;
33285;SDS011;19656;50.096;20.014;2022-08-25T06:53:59;27.30;;;4.80;;
33285;SDS011;19656;50.096;20.014;2022-08-25T06:59:03;25.20;;;4.70;;
33285;SDS011;19656;50.096;20.014;2022-08-25T07:09:14;26.70;;;5.90;;
33285;SDS011;19656;50.096;20.014;2022-08-25T07:14:18;25.40;;;5.50;;
33285;SDS011;19656;50.096;20.014;2022-08-25T07:19:21;19.30;;;4.70;;
33285;SDS011;19656;50.096;20.014;2022-08-25T07:24:24;27.50;;;5.60;;
33285;SDS011;19656;50.096;20.014;2022-08-25T07:29:27;27.80;;;5.80;;
33285;SDS011;19656;50.096;20.014;2022-08-25T07:34:51;21.40;;;4.90;;
33285;SDS011;19656;50.096;20.014;2022-08-25T07:40:15;27.30;;;5.40;;
33285;SDS011;19656;50.096;20.014;2022-08-25T07:45:20;22.00;;;4.70;;
33285;SDS011;19656;50.096;20.014;2022-08-25T07:50:32;29.90;;;6.20;;
33285;SDS011;19656;50.096;20.014;2022-08-25T07:55:35;21.90;;;5.10;;
33285;SDS011;19656;50.096;20.014;2022-08-25T08:00:39;28.90;;;5.50;;
33285;SDS011;19656;50.096;20.014;2022-08-25T08:05:43;20.20;;;5.60;;
33285;SDS011;19656;50.096;20.014;2022-08-25T08:10:46;22.30;;;5.50;;
33285;SDS011;19656;50.096;20.014;2022-08-25T08:16:13;30.10;;;6.40;;
33285;SDS011;19656;50.096;20.014;2022-08-25T08:21:29;30.90;;;6.20;;
33285;SDS011;19656;50.096;20.014;2022-08-25T08:26:34;22.20;;;6.00;;
33285;SDS011;19656;50.096;20.014;2022-08-25T08:31:57;24.40;;;6.40;;
33285;SDS011;19656;50.096;20.014;2022-08-25T08:37:01;27.60;;;5.60;;
33285;SDS011;19656;50.096;20.014;2022-08-25T08:47:43;24.30;;;5.80;;
33285;SDS011;19656;50.096;20.014;2022-08-25T08:53:02;33.60;;;6.40;;
33285;SDS011;19656;50.096;20.014;2022-08-25T08:58:19;35.60;;;5.90;;
33285;SDS011;19656;50.096;20.014;2022-08-25T09:03:39;29.70;;;7.10;;
33285;SDS011;19656;50.096;20.014;2022-08-25T09:08:46;33.50;;;6.40;;
33285;SDS011;19656;50.096;20.014;2022-08-25T09:24:50;26.10;;;7.10;;
33285;SDS011;19656;50.096;20.014;2022-08-25T09:30:05;31.90;;;6.60;;
33285;SDS011;19656;50.096;20.014;2022-08-25T09:35:13;28.70;;;6.60;;
33285;SDS011;19656;50.096;20.014;2022-08-25T09:40:21;30.00;;;6.80;;
33285;SDS011;19656;50.096;20.014;2022-08-25T09:50:45;26.60;;;6.50;;
33285;SDS011;19656;50.096;20.014;2022-08-25T09:55:55;36.60;;;7.90;;
33285;SDS011;19656;50.096;20.014;2022-08-25T10:06:17;28.40;;;7.40;;
33285;SDS011;19656;50.096;20.014;2022-08-25T10:22:05;30.20;;;6.70;;
33285;SDS011;19656;50.096;20.014;2022-08-25T10:37:51;31.90;;;6.60;;
33285;SDS011;19656;50.096;20.014;2022-08-25T10:43:12;34.00;;;6.90;;
33285;SDS011;19656;50.096;20.014;2022-08-25T10:59:28;25.90;;;6.40;;
33285;SDS011;19656;50.096;20.014;2022-08-25T11:04:36;25.00;;;6.90;;
33285;SDS011;19656;50.096;20.014;2022-08-25T11:09:45;32.50;;;6.10;;
33285;SDS011;19656;50.096;20.014;2022-08-25T11:14:54;33.10;;;6.80;;
33285;SDS011;19656;50.096;20.014;2022-08-25T11:20:04;34.70;;;6.30;;
33285;SDS011;19656;50.096;20.014;2022-08-25T11:25:29;27.40;;;6.80;;
33285;SDS011;19656;50.096;20.014;2022-08-25T11:30:36;29.00;;;6.30;;
33285;SDS011;19656;50.096;20.014;2022-08-25T11:35:42;22.10;;;5.60;;
33285;SDS011;19656;50.096;20.014;2022-08-25T11:51:41;23.40;;;5.80;;
33285;SDS011;19656;50.096;20.014;2022-08-25T11:56:54;30.00;;;6.50;;
33285;SDS011;19656;50.096;20.014;2022-08-25T12:02:01;31.30;;;5.80;;
33285;SDS011;19656;50.096;20.014;2022-08-25T12:12:30;26.70;;;5.90;;
33285;SDS011;19656;50.096;20.014;2022-08-25T12:17:39;27.90;;;6.30;;
33285;SDS011;19656;50.096;20.014;2022-08-25T12:22:43;28.30;;;6.20;;
33285;SDS011;19656;50.096;20.014;2022-08-25T12:28:00;24.10;;;5.80;;
33285;SDS011;19656;50.096;20.014;2022-08-25T12:33:43;29.90;;;6.30;;
33285;SDS011;19656;50.096;20.014;2022-08-25T12:49:45;31.70;;;6.60;;
33285;SDS011;19656;50.096;20.014;2022-08-25T12:54:57;22.70;;;5.80;;
33285;SDS011;19656;50.096;20.014;2022-08-25T13:00:13;32.60;;;5.90;;
33285;SDS011;19656;50.096;20.014;2022-08-25T13:16:04;21.10;;;5.40;;
33285;SDS011;19656;50.096;20.014;2022-08-25T13:21:18;29.20;;;5.80;;
33285;SDS011;19656;50.096;20.014;2022-08-25T13:26:29;30.60;;;5.60;;
33285;SDS011;19656;50.096;20.014;2022-08-25T13:31:35;25.30;;;5.90;;
33285;SDS011;19656;50.096;20.014;2022-08-25T13:36:45;31.80;;;5.70;;
33285;SDS011;19656;50.096;20.014;2022-08-25T13:42:15;26.00;;;5.80;;
33285;SDS011;19656;50.096;20.014;2022-08-25T13:47:32;23.60;;;5.40;;
33285;SDS011;19656;50.096;20.014;2022-08-25T13:52:49;22.60;;;5.50;;
33285;SDS011;19656;50.096;20.014;2022-08-25T13:57:57;34.50;;;6.10;;
33285;SDS011;19656;50.096;20.014;2022-08-25T14:03:01;30.00;;;6.00;;
33285;SDS011;19656;50.096;20.014;2022-08-25T14:08:30;29.00;;;6.00;;
33285;SDS011;19656;50.096;20.014;2022-08-25T14:13:37;36.20;;;6.00;;
33285;SDS011;19656;50.096;20.014;2022-08-25T14:18:47;25.70;;;6.90;;
33285;SDS011;19656;50.096;20.014;2022-08-25T14:23:52;33.10;;;6.00;;
33285;SDS011;19656;50.096;20.014;2022-08-25T14:28:57;31.80;;;6.40;;
33285;SDS011;19656;50.096;20.014;2022-08-25T14:34:02;46.90;;;8.00;;
33285;SDS011;19656;50.096;20.014;2022-08-25T14:39:14;29.90;;;6.10;;
33285;SDS011;19656;50.096;20.014;2022-08-25T14:44:17;33.30;;;6.00;;
33285;SDS011;19656;50.096;20.014;2022-08-25T14:49:23;36.90;;;6.80;;
33285;SDS011;19656;50.096;20.014;2022-08-25T14:54:34;28.20;;;6.60;;
33285;SDS011;19656;50.096;20.014;2022-08-25T15:05:00;35.20;;;7.00;;
33285;SDS011;19656;50.096;20.014;2022-08-25T15:10:08;29.90;;;6.30;;
33285;SDS011;19656;50.096;20.014;2022-08-25T15:15:15;30.30;;;6.60;;
33285;SDS011;19656;50.096;20.014;2022-08-25T15:20:19;22.60;;;6.10;;
33285;SDS011;19656;50.096;20.014;2022-08-25T15:25:22;36.20;;;6.90;;
33285;SDS011;19656;50.096;20.014;2022-08-25T15:30:26;36.20;;;7.60;;
33285;SDS011;19656;50.096;20.014;2022-08-25T15:35:33;25.30;;;6.60;;
33285;SDS011;19656;50.096;20.014;2022-08-25T15:40:36;25.20;;;6.70;;
33285;SDS011;19656;50.096;20.014;2022-08-25T15:45:40;31.10;;;7.10;;
33285;SDS011;19656;50.096;20.014;2022-08-25T15:50:43;34.30;;;7.20;;
33285;SDS011;19656;50.096;20.014;2022-08-25T15:55:48;29.30;;;6.90;;
33285;SDS011;19656;50.096;20.014;2022-08-25T16:00:55;29.90;;;7.10;;
33285;SDS011;19656;50.096;20.014;2022-08-25T16:05:58;22.70;;;6.80;;
33285;SDS011;19656;50.096;20.014;2022-08-25T16:11:06;20.50;;;7.00;;
33285;SDS011;19656;50.096;20.014;2022-08-25T16:16:20;26.10;;;6.30;;
33285;SDS011;19656;50.096;20.014;2022-08-25T16:21:28;27.40;;;6.70;;
33285;SDS011;19656;50.096;20.014;2022-08-25T16:26:37;25.30;;;6.50;;
33285;SDS011;19656;50.096;20.014;2022-08-25T16:31:50;23.60;;;6.40;;
33285;SDS011;19656;50.096;20.014;2022-08-25T16:36:56;21.20;;;6.90;;
33285;SDS011;19656;50.096;20.014;2022-08-25T16:42:00;22.60;;;6.60;;
33285;SDS011;19656;50.096;20.014;2022-08-25T16:47:05;22.00;;;6.90;;
33285;SDS011;19656;50.096;20.014;2022-08-25T16:52:10;34.30;;;7.00;;
33285;SDS011;19656;50.096;20.014;2022-08-25T16:57:32;31.20;;;7.50;;
33285;SDS011;19656;50.096;20.014;2022-08-25T17:02:36;22.10;;;6.20;;
33285;SDS011;19656;50.096;20.014;2022-08-25T17:07:40;34.00;;;7.30;;
33285;SDS011;19656;50.096;20.014;2022-08-25T17:12:43;32.90;;;7.50;;
33285;SDS011;19656;50.096;20.014;2022-08-25T17:17:45;49.10;;;8.60;;
33285;SDS011;19656;50.096;20.014;2022-08-25T17:22:48;48.40;;;9.00;;
33285;SDS011;19656;50.096;20.014;2022-08-25T17:27:52;31.60;;;7.80;;
33285;SDS011;19656;50.096;20.014;2022-08-25T17:32:55;44.10;;;9.00;;
33285;SDS011;19656;50.096;20.014;2022-08-25T17:37:58;38.90;;;7.90;;
33285;SDS011;19656;50.096;20.014;2022-08-25T17:43:01;33.60;;;7.80;;
33285;SDS011;19656;50.096;20.014;2022-08-25T17:48:05;44.20;;;9.00;;
33285;SDS011;19656;50.096;20.014;2022-08-25T17:53:10;36.20;;;7.50;;
33285;SDS011;19656;50.096;20.014;2022-08-25T17:58:17;35.70;;;7.50;;
33285;SDS011;19656;50.096;20.014;2022-08-25T18:03:21;40.20;;;8.00;;
33285;SDS011;19656;50.096;20.014;2022-08-25T18:08:25;28.50;;;7.90;;
33285;SDS011;19656;50.096;20.014;2022-08-25T18:13:36;21.80;;;5.90;;
33285;SDS011;19656;50.096;20.014;2022-08-25T18:18:40;30.50;;;7.60;;
33285;SDS011;19656;50.096;20.014;2022-08-25T18:23:44;22.60;;;6.80;;
33285;SDS011;19656;50.096;20.014;2022-08-25T18:28:48;20.50;;;6.60;;
33285;SDS011;19656;50.096;20.014;2022-08-25T18:33:51;30.30;;;6.40;;
33285;SDS011;19656;50.096;20.014;2022-08-25T18:38:54;29.00;;;7.30;;
33285;SDS011;19656;50.096;20.014;2022-08-25T18:44:18;22.70;;;6.70;;
33285;SDS011;19656;50.096;20.014;2022-08-25T18:49:21;25.20;;;7.10;;
33285;SDS011;19656;50.096;20.014;2022-08-25T18:54:30;24.90;;;7.20;;
33285;SDS011;19656;50.096;20.014;2022-08-25T18:59:37;18.90;;;7.20;;
33285;SDS011;19656;50.096;20.014;2022-08-25T19:04:40;21.50;;;7.00;;
33285;SDS011;19656;50.096;20.014;2022-08-25T19:09:43;23.90;;;7.70;;
33285;SDS011;19656;50.096;20.014;2022-08-25T19:14:46;30.20;;;7.70;;
33285;SDS011;19656;50.096;20.014;2022-08-25T19:19:49;24.50;;;7.40;;
33285;SDS011;19656;50.096;20.014;2022-08-25T19:24:53;27.50;;;7.90;;
33285;SDS011;19656;50.096;20.014;2022-08-25T19:29:56;18.60;;;7.00;;
33285;SDS011;19656;50.096;20.014;2022-08-25T19:34:59;25.80;;;7.50;;
33285;SDS011;19656;50.096;20.014;2022-08-25T19:40:04;23.00;;;8.30;;
33285;SDS011;19656;50.096;20.014;2022-08-25T19:45:10;24.00;;;7.50;;
33285;SDS011;19656;50.096;20.014;2022-08-25T19:50:14;26.50;;;7.80;;
33285;SDS011;19656;50.096;20.014;2022-08-25T19:55:19;23.60;;;7.50;;
33285;SDS011;19656;50.096;20.014;2022-08-25T20:00:27;15.60;;;7.70;;
33285;SDS011;19656;50.096;20.014;2022-08-25T20:05:34;22.00;;;7.10;;
33285;SDS011;19656;50.096;20.014;2022-08-25T20:10:39;25.00;;;7.80;;
33285;SDS011;19656;50.096;20.014;2022-08-25T20:20:46;27.70;;;8.20;;
33285;SDS011;19656;50.096;20.014;2022-08-25T20:25:50;18.90;;;7.30;;
33285;SDS011;19656;50.096;20.014;2022-08-25T20:30:53;21.90;;;7.70;;
33285;SDS011;19656;50.096;20.014;2022-08-25T20:35:56;24.60;;;7.40;;
33285;SDS011;19656;50.096;20.014;2022-08-25T20:41:01;17.60;;;7.00;;
33285;SDS011;19656;50.096;20.014;2022-08-25T20:46:05;26.70;;;6.90;;
33285;SDS011;19656;50.096;20.014;2022-08-25T20:51:09;18.80;;;7.10;;
33285;SDS011;19656;50.096;20.014;2022-08-25T20:56:14;23.00;;;7.50;;
33285;SDS011;19656;50.096;20.014;2022-08-25T21:01:20;21.80;;;7.40;;
33285;SDS011;19656;50.096;20.014;2022-08-25T21:06:25;13.80;;;6.90;;
33285;SDS011;19656;50.096;20.014;2022-08-25T21:11:28;18.30;;;7.70;;
33285;SDS011;19656;50.096;20.014;2022-08-25T21:16:32;19.40;;;6.40;;
33285;SDS011;19656;50.096;20.014;2022-08-25T21:21:38;18.30;;;6.10;;
33285;SDS011;19656;50.096;20.014;2022-08-25T21:26:41;16.90;;;6.80;;
33285;SDS011;19656;50.096;20.014;2022-08-25T21:31:50;17.40;;;6.60;;
33285;SDS011;19656;50.096;20.014;2022-08-25T21:36:56;20.30;;;6.20;;
33285;SDS011;19656;50.096;20.014;2022-08-25T21:42:02;13.50;;;6.00;;
33285;SDS011;19656;50.096;20.014;2022-08-25T21:47:05;15.10;;;6.50;;
33285;SDS011;19656;50.096;20.014;2022-08-25T21:52:08;17.10;;;6.30;;
33285;SDS011;19656;50.096;20.014;2022-08-25T21:57:11;13.20;;;6.40;;
33285;SDS011;19656;50.096;20.014;2022-08-25T22:02:15;16.30;;;6.10;;
33285;SDS011;19656;50.096;20.014;2022-08-25T22:07:24;18.80;;;6.10;;
33285;SDS011;19656;50.096;20.014;2022-08-25T22:12:27;15.40;;;6.30;;
33285;SDS011;19656;50.096;20.014;2022-08-25T22:17:30;15.10;;;6.20;;
33285;SDS011;19656;50.096;20.014;2022-08-25T22:22:34;13.90;;;5.70;;
33285;SDS011;19656;50.096;20.014;2022-08-25T22:27:37;17.40;;;6.90;;
33285;SDS011;19656;50.096;20.014;2022-08-25T22:32:41;10.00;;;5.70;;
33285;SDS011;19656;50.096;20.014;2022-08-25T22:37:50;13.00;;;5.80;;
33285;SDS011;19656;50.096;20.014;2022-08-25T22:42:53;15.80;;;5.70;;
33285;SDS011;19656;50.096;20.014;2022-08-25T22:47:56;14.60;;;6.10;;
33285;SDS011;19656;50.096;20.014;2022-08-25T22:53:00;16.70;;;5.90;;
33285;SDS011;19656;50.096;20.014;2022-08-25T22:58:03;19.80;;;6.00;;
33285;SDS011;19656;50.096;20.014;2022-08-25T23:03:07;18.40;;;6.40;;
33285;SDS011;19656;50.096;20.014;2022-08-25T23:08:10;16.50;;;6.20;;
33285;SDS011;19656;50.096;20.014;2022-08-25T23:13:13;17.20;;;6.50;;
33285;SDS011;19656;50.096;20.014;2022-08-25T23:18:36;16.40;;;5.70;;
33285;SDS011;19656;50.096;20.014;2022-08-25T23:23:45;16.00;;;6.30;;
33285;SDS011;19656;50.096;20.014;2022-08-25T23:33:53;13.70;;;5.70;;
33285;SDS011;19656;50.096;20.014;2022-08-25T23:38:56;21.80;;;5.90;;
33285;SDS011;19656;50.096;20.014;2022-08-25T23:43:59;16.10;;;5.70;;
33285;SDS011;19656;50.096;20.014;2022-08-25T23:49:03;18.90;;;5.80;;
33285;SDS011;19656;50.096;20.014;2022-08-25T23:54:10;17.50;;;6.10;;
33285;SDS011;19656;50.096;20.014;2022-08-25T23:59:14;13.80;;;6.30;;
